sensor_id;sensor_type;location;lat;lon;timestamp;temperature;humidity
24772;DHT22;12870;52.274;9.754;2023-01-30T00:00:57;3.50;99.90
24772;DHT22;12870;52.274;9.754;2023-01-30T00:03:23;3.50;99.90
24772;DHT22;12870;52.274;9.754;2023-01-30T00:05:49;3.60;99.90
24772;DHT22;12870;52.274;9.754;2023-01-30T00:08:16;3.60;99.90
24772;DHT22;12870;52.274;9.754;2023-01-30T00:10:42;3.60;99.90
24772;DHT22;12870;52.274;9.754;2023-01-30T00:13:08;3.60;99.90
24772;DHT22;12870;52.274;9.754;2023-01-30T00:15:34;3.60;99.90
24772;DHT22;12870;52.274;9.754;2023-01-30T00:18:00;3.60;99.90
24772;DHT22;12870;52.274;9.754;2023-01-30T00:20:26;3.50;99.90
24772;DHT22;12870;52.274;9.754;2023-01-30T00:22:52;3.50;99.90
24772;DHT22;12870;52.274;9.754;2023-01-30T00:25:17;3.50;99.90
24772;DHT22;12870;52.274;9.754;2023-01-30T00:27:43;3.60;99.90
24772;DHT22;12870;52.274;9.754;2023-01-30T00:30:09;3.60;99.90
24772;DHT22;12870;52.274;9.754;2023-01-30T00:32:35;3.70;99.90
24772;DHT22;12870;52.274;9.754;2023-01-30T00:35:01;3.70;99.90
24772;DHT22;12870;52.274;9.754;2023-01-30T00:37:27;3.80;99.90
24772;DHT22;12870;52.274;9.754;2023-01-30T00:39:52;3.80;99.90
24772;DHT22;12870;52.274;9.754;2023-01-30T00:42:18;3.90;99.90
24772;DHT22;12870;52.274;9.754;2023-01-30T00:45:02;3.90;99.90
24772;DHT22;12870;52.274;9.754;2023-01-30T00:47:48;3.90;99.90
24772;DHT22;12870;52.274;9.754;2023-01-30T00:50:14;3.90;99.90
24772;DHT22;12870;52.274;9.754;2023-01-30T00:52:39;3.90;99.90
24772;DHT22;12870;52.274;9.754;2023-01-30T00:55:05;3.80;99.90
24772;DHT22;12870;52.274;9.754;2023-01-30T00:57:31;3.80;99.90
24772;DHT22;12870;52.274;9.754;2023-01-30T00:59:57;3.90;99.90
24772;DHT22;12870;52.274;9.754;2023-01-30T01:02:22;3.90;99.90
24772;DHT22;12870;52.274;9.754;2023-01-30T01:04:48;3.80;99.90
24772;DHT22;12870;52.274;9.754;2023-01-30T01:07:14;3.80;99.90
24772;DHT22;12870;52.274;9.754;2023-01-30T01:09:40;3.80;99.90
24772;DHT22;12870;52.274;9.754;2023-01-30T01:12:06;3.90;99.90
24772;DHT22;12870;52.274;9.754;2023-01-30T01:14:32;3.80;99.90
24772;DHT22;12870;52.274;9.754;2023-01-30T01:16:58;3.80;99.90
24772;DHT22;12870;52.274;9.754;2023-01-30T01:19:24;3.90;99.90
24772;DHT22;12870;52.274;9.754;2023-01-30T01:21:50;3.90;99.90
24772;DHT22;12870;52.274;9.754;2023-01-30T01:24:16;3.90;99.90
24772;DHT22;12870;52.274;9.754;2023-01-30T01:26:42;3.90;99.90
24772;DHT22;12870;52.274;9.754;2023-01-30T01:29:15;3.80;99.90
24772;DHT22;12870;52.274;9.754;2023-01-30T01:31:41;3.90;99.90
24772;DHT22;12870;52.274;9.754;2023-01-30T01:34:08;3.90;99.90
24772;DHT22;12870;52.274;9.754;2023-01-30T01:36:34;3.90;99.90
24772;DHT22;12870;52.274;9.754;2023-01-30T01:38:59;3.80;99.90
24772;DHT22;12870;52.274;9.754;2023-01-30T01:41:25;3.80;99.90
24772;DHT22;12870;52.274;9.754;2023-01-30T01:44:02;3.80;99.90
24772;DHT22;12870;52.274;9.754;2023-01-30T01:46:57;3.70;99.90
24772;DHT22;12870;52.274;9.754;2023-01-30T01:49:31;3.70;99.90
24772;DHT22;12870;52.274;9.754;2023-01-30T01:52:06;3.60;99.90
24772;DHT22;12870;52.274;9.754;2023-01-30T01:54:35;3.60;99.90
24772;DHT22;12870;52.274;9.754;2023-01-30T01:57:06;3.60;99.90
24772;DHT22;12870;52.274;9.754;2023-01-30T01:59:39;3.60;99.90
24772;DHT22;12870;52.274;9.754;2023-01-30T02:02:09;3.60;99.90
24772;DHT22;12870;52.274;9.754;2023-01-30T02:04:38;3.60;99.90
24772;DHT22;12870;52.274;9.754;2023-01-30T02:07:23;3.70;99.90
24772;DHT22;12870;52.274;9.754;2023-01-30T02:09:50;3.70;99.90
24772;DHT22;12870;52.274;9.754;2023-01-30T02:12:16;3.80;99.90
24772;DHT22;12870;52.274;9.754;2023-01-30T02:14:42;3.80;99.90
24772;DHT22;12870;52.274;9.754;2023-01-30T02:17:08;3.90;99.90
24772;DHT22;12870;52.274;9.754;2023-01-30T02:19:59;3.90;99.90
24772;DHT22;12870;52.274;9.754;2023-01-30T02:41:42;4.20;99.90
24772;DHT22;12870;52.274;9.754;2023-01-30T02:46:57;4.30;99.90
24772;DHT22;12870;52.274;9.754;2023-01-30T02:49:57;4.30;99.90
24772;DHT22;12870;52.274;9.754;2023-01-30T02:52:26;4.40;99.90
24772;DHT22;12870;52.274;9.754;2023-01-30T02:54:53;4.40;99.90
24772;DHT22;12870;52.274;9.754;2023-01-30T02:57:20;4.40;99.90
24772;DHT22;12870;52.274;9.754;2023-01-30T02:59:50;4.40;99.90
24772;DHT22;12870;52.274;9.754;2023-01-30T03:02:46;4.40;99.90
24772;DHT22;12870;52.274;9.754;2023-01-30T03:13:14;4.60;99.90
24772;DHT22;12870;52.274;9.754;2023-01-30T03:15:53;4.60;99.90
24772;DHT22;12870;52.274;9.754;2023-01-30T03:18:19;4.70;99.90
24772;DHT22;12870;52.274;9.754;2023-01-30T03:20:46;4.70;99.90
24772;DHT22;12870;52.274;9.754;2023-01-30T03:23:12;4.70;99.90
24772;DHT22;12870;52.274;9.754;2023-01-30T03:25:40;4.80;99.90
24772;DHT22;12870;52.274;9.754;2023-01-30T03:28:07;4.80;99.90
24772;DHT22;12870;52.274;9.754;2023-01-30T03:30:34;4.70;99.90
24772;DHT22;12870;52.274;9.754;2023-01-30T03:32:59;4.70;99.90
24772;DHT22;12870;52.274;9.754;2023-01-30T03:35:25;4.70;99.90
24772;DHT22;12870;52.274;9.754;2023-01-30T03:37:51;4.70;99.90
24772;DHT22;12870;52.274;9.754;2023-01-30T03:40:17;4.70;99.90
24772;DHT22;12870;52.274;9.754;2023-01-30T03:42:43;4.70;99.90
24772;DHT22;12870;52.274;9.754;2023-01-30T03:45:10;4.60;99.90
24772;DHT22;12870;52.274;9.754;2023-01-30T03:47:35;4.60;99.90
24772;DHT22;12870;52.274;9.754;2023-01-30T03:50:01;4.60;99.90
24772;DHT22;12870;52.274;9.754;2023-01-30T03:52:27;4.60;99.90
24772;DHT22;12870;52.274;9.754;2023-01-30T03:54:52;4.60;99.90
24772;DHT22;12870;52.274;9.754;2023-01-30T03:57:18;4.70;99.90
24772;DHT22;12870;52.274;9.754;2023-01-30T03:59:43;4.70;99.90
24772;DHT22;12870;52.274;9.754;2023-01-30T04:02:09;4.80;99.90
24772;DHT22;12870;52.274;9.754;2023-01-30T04:04:35;4.80;99.90
24772;DHT22;12870;52.274;9.754;2023-01-30T04:07:01;4.80;99.90
24772;DHT22;12870;52.274;9.754;2023-01-30T04:09:26;4.90;99.90
24772;DHT22;12870;52.274;9.754;2023-01-30T04:11:52;4.90;99.90
24772;DHT22;12870;52.274;9.754;2023-01-30T04:14:18;4.90;99.90
24772;DHT22;12870;52.274;9.754;2023-01-30T04:16:44;4.90;99.90
24772;DHT22;12870;52.274;9.754;2023-01-30T04:19:10;4.90;99.90
24772;DHT22;12870;52.274;9.754;2023-01-30T04:21:36;5.00;99.90
24772;DHT22;12870;52.274;9.754;2023-01-30T04:24:02;4.90;99.90
24772;DHT22;12870;52.274;9.754;2023-01-30T04:26:27;4.90;99.90
24772;DHT22;12870;52.274;9.754;2023-01-30T04:28:53;4.90;99.90
24772;DHT22;12870;52.274;9.754;2023-01-30T04:31:19;5.00;99.90
24772;DHT22;12870;52.274;9.754;2023-01-30T04:33:44;5.10;99.90
24772;DHT22;12870;52.274;9.754;2023-01-30T04:36:10;5.10;99.90
24772;DHT22;12870;52.274;9.754;2023-01-30T04:38:37;5.20;99.90
24772;DHT22;12870;52.274;9.754;2023-01-30T04:41:04;5.20;99.90
24772;DHT22;12870;52.274;9.754;2023-01-30T04:43:30;5.20;99.90
24772;DHT22;12870;52.274;9.754;2023-01-30T04:45:56;5.20;99.90
24772;DHT22;12870;52.274;9.754;2023-01-30T04:48:23;5.30;99.90
24772;DHT22;12870;52.274;9.754;2023-01-30T04:50:52;5.30;99.90
24772;DHT22;12870;52.274;9.754;2023-01-30T04:53:18;5.40;99.90
24772;DHT22;12870;52.274;9.754;2023-01-30T04:55:45;5.40;99.90
24772;DHT22;12870;52.274;9.754;2023-01-30T04:58:11;5.40;99.90
24772;DHT22;12870;52.274;9.754;2023-01-30T05:00:37;5.50;99.90
24772;DHT22;12870;52.274;9.754;2023-01-30T05:03:03;5.60;99.90
24772;DHT22;12870;52.274;9.754;2023-01-30T05:05:29;5.70;99.90
24772;DHT22;12870;52.274;9.754;2023-01-30T05:07:55;5.70;99.90
24772;DHT22;12870;52.274;9.754;2023-01-30T05:10:20;5.70;99.90
24772;DHT22;12870;52.274;9.754;2023-01-30T05:12:46;5.70;99.90
24772;DHT22;12870;52.274;9.754;2023-01-30T05:15:12;5.80;99.90
24772;DHT22;12870;52.274;9.754;2023-01-30T05:17:38;5.80;99.90
24772;DHT22;12870;52.274;9.754;2023-01-30T05:20:06;5.80;99.90
24772;DHT22;12870;52.274;9.754;2023-01-30T05:22:34;5.80;99.90
24772;DHT22;12870;52.274;9.754;2023-01-30T05:24:59;5.90;99.90
24772;DHT22;12870;52.274;9.754;2023-01-30T05:27:25;5.90;99.90
24772;DHT22;12870;52.274;9.754;2023-01-30T05:29:51;5.90;99.90
24772;DHT22;12870;52.274;9.754;2023-01-30T05:32:17;5.90;99.90
24772;DHT22;12870;52.274;9.754;2023-01-30T05:34:43;6.00;99.90
24772;DHT22;12870;52.274;9.754;2023-01-30T05:37:11;6.00;99.90
24772;DHT22;12870;52.274;9.754;2023-01-30T05:39:37;6.00;99.90
24772;DHT22;12870;52.274;9.754;2023-01-30T05:42:03;6.00;99.90
24772;DHT22;12870;52.274;9.754;2023-01-30T05:44:29;6.00;99.90
24772;DHT22;12870;52.274;9.754;2023-01-30T05:46:55;6.00;99.90
24772;DHT22;12870;52.274;9.754;2023-01-30T05:49:21;6.00;99.90
24772;DHT22;12870;52.274;9.754;2023-01-30T05:51:46;5.90;99.90
24772;DHT22;12870;52.274;9.754;2023-01-30T05:54:12;6.00;99.90
24772;DHT22;12870;52.274;9.754;2023-01-30T05:56:38;5.90;99.90
24772;DHT22;12870;52.274;9.754;2023-01-30T05:59:04;6.00;99.90
24772;DHT22;12870;52.274;9.754;2023-01-30T06:01:30;6.00;99.90
24772;DHT22;12870;52.274;9.754;2023-01-30T06:03:57;6.00;99.90
24772;DHT22;12870;52.274;9.754;2023-01-30T06:06:24;6.00;99.90
24772;DHT22;12870;52.274;9.754;2023-01-30T06:08:53;6.00;99.90
24772;DHT22;12870;52.274;9.754;2023-01-30T06:11:20;6.10;99.90
24772;DHT22;12870;52.274;9.754;2023-01-30T06:13:46;6.00;99.90
24772;DHT22;12870;52.274;9.754;2023-01-30T06:16:13;6.00;99.90
24772;DHT22;12870;52.274;9.754;2023-01-30T06:18:39;6.00;99.90
24772;DHT22;12870;52.274;9.754;2023-01-30T06:21:05;6.00;99.90
24772;DHT22;12870;52.274;9.754;2023-01-30T06:23:31;6.00;99.90
24772;DHT22;12870;52.274;9.754;2023-01-30T06:25:57;6.00;99.90
24772;DHT22;12870;52.274;9.754;2023-01-30T06:28:24;6.00;99.90
24772;DHT22;12870;52.274;9.754;2023-01-30T06:30:50;6.00;99.90
24772;DHT22;12870;52.274;9.754;2023-01-30T06:33:16;6.00;99.90
24772;DHT22;12870;52.274;9.754;2023-01-30T06:35:42;6.00;99.90
24772;DHT22;12870;52.274;9.754;2023-01-30T06:38:09;6.00;99.90
24772;DHT22;12870;52.274;9.754;2023-01-30T06:40:44;6.10;99.90
24772;DHT22;12870;52.274;9.754;2023-01-30T06:43:09;6.20;99.90
24772;DHT22;12870;52.274;9.754;2023-01-30T06:45:35;6.20;99.90
24772;DHT22;12870;52.274;9.754;2023-01-30T06:48:01;6.30;99.90
24772;DHT22;12870;52.274;9.754;2023-01-30T06:50:27;6.40;99.90
24772;DHT22;12870;52.274;9.754;2023-01-30T06:52:54;6.50;99.90
24772;DHT22;12870;52.274;9.754;2023-01-30T06:55:23;6.60;99.90
24772;DHT22;12870;52.274;9.754;2023-01-30T06:57:49;6.60;99.90
24772;DHT22;12870;52.274;9.754;2023-01-30T07:00:19;6.60;99.90
24772;DHT22;12870;52.274;9.754;2023-01-30T07:02:45;6.70;99.90
24772;DHT22;12870;52.274;9.754;2023-01-30T07:05:11;6.60;99.90
24772;DHT22;12870;52.274;9.754;2023-01-30T07:07:38;6.50;99.90
24772;DHT22;12870;52.274;9.754;2023-01-30T07:10:05;6.50;99.90
24772;DHT22;12870;52.274;9.754;2023-01-30T07:12:31;6.40;99.90
24772;DHT22;12870;52.274;9.754;2023-01-30T07:14:57;6.30;99.90
24772;DHT22;12870;52.274;9.754;2023-01-30T07:17:23;6.30;99.90
24772;DHT22;12870;52.274;9.754;2023-01-30T07:19:49;6.30;99.90
24772;DHT22;12870;52.274;9.754;2023-01-30T07:22:15;6.20;99.90
24772;DHT22;12870;52.274;9.754;2023-01-30T07:24:41;6.20;99.90
24772;DHT22;12870;52.274;9.754;2023-01-30T07:27:11;6.20;99.90
24772;DHT22;12870;52.274;9.754;2023-01-30T07:29:38;6.10;99.90
24772;DHT22;12870;52.274;9.754;2023-01-30T07:32:05;6.20;99.90
24772;DHT22;12870;52.274;9.754;2023-01-30T07:34:31;6.10;99.90
24772;DHT22;12870;52.274;9.754;2023-01-30T07:36:57;6.10;99.90
24772;DHT22;12870;52.274;9.754;2023-01-30T07:39:23;6.10;99.90
24772;DHT22;12870;52.274;9.754;2023-01-30T07:41:49;6.10;99.90
24772;DHT22;12870;52.274;9.754;2023-01-30T07:44:14;6.10;99.90
24772;DHT22;12870;52.274;9.754;2023-01-30T07:46:40;6.10;99.90
24772;DHT22;12870;52.274;9.754;2023-01-30T07:49:07;6.10;99.90
24772;DHT22;12870;52.274;9.754;2023-01-30T07:51:34;6.10;99.90
24772;DHT22;12870;52.274;9.754;2023-01-30T07:53:59;6.10;99.90
24772;DHT22;12870;52.274;9.754;2023-01-30T07:56:26;6.10;99.90
24772;DHT22;12870;52.274;9.754;2023-01-30T07:58:53;6.10;99.90
24772;DHT22;12870;52.274;9.754;2023-01-30T08:01:19;6.20;99.90
24772;DHT22;12870;52.274;9.754;2023-01-30T08:03:45;6.20;99.90
24772;DHT22;12870;52.274;9.754;2023-01-30T08:06:14;6.30;99.90
24772;DHT22;12870;52.274;9.754;2023-01-30T08:08:39;6.30;99.90
24772;DHT22;12870;52.274;9.754;2023-01-30T08:11:05;6.30;99.90
24772;DHT22;12870;52.274;9.754;2023-01-30T08:13:31;6.30;99.90
24772;DHT22;12870;52.274;9.754;2023-01-30T08:16:06;6.30;99.90
24772;DHT22;12870;52.274;9.754;2023-01-30T08:18:33;6.30;99.90
24772;DHT22;12870;52.274;9.754;2023-01-30T08:21:04;6.30;99.90
24772;DHT22;12870;52.274;9.754;2023-01-30T08:23:30;6.30;99.90
24772;DHT22;12870;52.274;9.754;2023-01-30T08:26:00;6.30;99.90
24772;DHT22;12870;52.274;9.754;2023-01-30T08:28:27;6.40;99.90
24772;DHT22;12870;52.274;9.754;2023-01-30T08:30:53;6.40;99.90
24772;DHT22;12870;52.274;9.754;2023-01-30T08:33:20;6.60;99.90
24772;DHT22;12870;52.274;9.754;2023-01-30T08:35:46;6.60;99.90
24772;DHT22;12870;52.274;9.754;2023-01-30T08:38:12;6.60;99.90
24772;DHT22;12870;52.274;9.754;2023-01-30T08:40:38;6.60;99.90
24772;DHT22;12870;52.274;9.754;2023-01-30T08:43:04;6.60;99.90
24772;DHT22;12870;52.274;9.754;2023-01-30T08:45:30;6.70;99.90
24772;DHT22;12870;52.274;9.754;2023-01-30T08:48:04;6.70;99.90
24772;DHT22;12870;52.274;9.754;2023-01-30T08:50:31;6.70;99.90
24772;DHT22;12870;52.274;9.754;2023-01-30T08:52:57;6.80;99.90
24772;DHT22;12870;52.274;9.754;2023-01-30T08:55:26;6.70;99.90
24772;DHT22;12870;52.274;9.754;2023-01-30T08:57:55;6.70;99.90
24772;DHT22;12870;52.274;9.754;2023-01-30T09:00:21;6.70;99.90
24772;DHT22;12870;52.274;9.754;2023-01-30T09:02:47;6.70;99.90
24772;DHT22;12870;52.274;9.754;2023-01-30T09:05:12;6.70;99.90
24772;DHT22;12870;52.274;9.754;2023-01-30T09:07:38;6.70;99.90
24772;DHT22;12870;52.274;9.754;2023-01-30T09:10:04;6.70;99.90
24772;DHT22;12870;52.274;9.754;2023-01-30T09:12:30;6.80;99.90
24772;DHT22;12870;52.274;9.754;2023-01-30T09:14:55;6.80;99.90
24772;DHT22;12870;52.274;9.754;2023-01-30T09:17:23;6.90;99.90
24772;DHT22;12870;52.274;9.754;2023-01-30T09:19:49;6.80;99.90
24772;DHT22;12870;52.274;9.754;2023-01-30T09:22:15;6.80;99.90
24772;DHT22;12870;52.274;9.754;2023-01-30T09:24:41;6.80;99.90
24772;DHT22;12870;52.274;9.754;2023-01-30T09:27:07;6.80;99.90
24772;DHT22;12870;52.274;9.754;2023-01-30T09:29:33;6.80;99.90
24772;DHT22;12870;52.274;9.754;2023-01-30T09:31:58;6.90;99.90
24772;DHT22;12870;52.274;9.754;2023-01-30T09:34:25;6.80;99.90
24772;DHT22;12870;52.274;9.754;2023-01-30T09:36:57;6.90;99.90
24772;DHT22;12870;52.274;9.754;2023-01-30T09:39:27;6.80;99.90
24772;DHT22;12870;52.274;9.754;2023-01-30T09:47:36;6.90;99.90
24772;DHT22;12870;52.274;9.754;2023-01-30T09:56:06;6.90;99.90
24772;DHT22;12870;52.274;9.754;2023-01-30T09:58:45;6.90;99.90
24772;DHT22;12870;52.274;9.754;2023-01-30T10:01:26;7.00;99.90
24772;DHT22;12870;52.274;9.754;2023-01-30T10:04:04;6.90;99.90
24772;DHT22;12870;52.274;9.754;2023-01-30T10:06:41;6.90;99.90
24772;DHT22;12870;52.274;9.754;2023-01-30T10:12:06;6.90;99.90
24772;DHT22;12870;52.274;9.754;2023-01-30T10:15:16;6.90;99.90
24772;DHT22;12870;52.274;9.754;2023-01-30T10:20:40;6.80;99.90
24772;DHT22;12870;52.274;9.754;2023-01-30T10:23:26;6.60;99.90
24772;DHT22;12870;52.274;9.754;2023-01-30T10:26:15;6.70;99.90
24772;DHT22;12870;52.274;9.754;2023-01-30T10:31:19;6.80;99.90
24772;DHT22;12870;52.274;9.754;2023-01-30T10:36:24;7.00;99.90
24772;DHT22;12870;52.274;9.754;2023-01-30T10:38:53;7.00;99.90
24772;DHT22;12870;52.274;9.754;2023-01-30T10:41:35;7.20;99.90
24772;DHT22;12870;52.274;9.754;2023-01-30T10:44:09;7.30;99.90
24772;DHT22;12870;52.274;9.754;2023-01-30T10:49:46;7.40;99.90
24772;DHT22;12870;52.274;9.754;2023-01-30T10:57:55;8.10;99.90
24772;DHT22;12870;52.274;9.754;2023-01-30T11:05:57;8.20;99.90
24772;DHT22;12870;52.274;9.754;2023-01-30T11:08:25;8.00;99.90
24772;DHT22;12870;52.274;9.754;2023-01-30T11:10:52;7.50;99.90
24772;DHT22;12870;52.274;9.754;2023-01-30T11:13:21;7.20;99.90
24772;DHT22;12870;52.274;9.754;2023-01-30T11:15:51;7.10;99.90
24772;DHT22;12870;52.274;9.754;2023-01-30T11:18:19;7.20;99.90
24772;DHT22;12870;52.274;9.754;2023-01-30T11:20:56;7.80;99.90
24772;DHT22;12870;52.274;9.754;2023-01-30T11:23:40;8.80;99.90
24772;DHT22;12870;52.274;9.754;2023-01-30T11:26:31;9.10;99.90
24772;DHT22;12870;52.274;9.754;2023-01-30T11:28:57;9.00;99.90
24772;DHT22;12870;52.274;9.754;2023-01-30T11:31:28;8.90;99.90
24772;DHT22;12870;52.274;9.754;2023-01-30T11:34:14;8.60;99.90
24772;DHT22;12870;52.274;9.754;2023-01-30T11:36:40;8.20;99.90
24772;DHT22;12870;52.274;9.754;2023-01-30T11:41:58;8.90;99.90
24772;DHT22;12870;52.274;9.754;2023-01-30T11:47:28;9.20;99.90
24772;DHT22;12870;52.274;9.754;2023-01-30T11:49:58;9.30;99.90
24772;DHT22;12870;52.274;9.754;2023-01-30T11:52:32;9.20;99.90
24772;DHT22;12870;52.274;9.754;2023-01-30T11:55:02;9.20;99.90
24772;DHT22;12870;52.274;9.754;2023-01-30T11:57:44;8.70;99.90
24772;DHT22;12870;52.274;9.754;2023-01-30T12:00:20;8.10;99.90
24772;DHT22;12870;52.274;9.754;2023-01-30T12:02:47;7.70;99.90
24772;DHT22;12870;52.274;9.754;2023-01-30T12:05:33;7.50;99.90
24772;DHT22;12870;52.274;9.754;2023-01-30T12:08:35;7.30;99.90
24772;DHT22;12870;52.274;9.754;2023-01-30T12:11:02;7.00;99.90
24772;DHT22;12870;52.274;9.754;2023-01-30T12:13:37;6.90;99.90
24772;DHT22;12870;52.274;9.754;2023-01-30T12:16:20;6.70;99.90
24772;DHT22;12870;52.274;9.754;2023-01-30T12:19:17;6.60;99.90
24772;DHT22;12870;52.274;9.754;2023-01-30T12:22:34;6.30;99.90
24772;DHT22;12870;52.274;9.754;2023-01-30T12:25:15;6.20;99.90
24772;DHT22;12870;52.274;9.754;2023-01-30T12:28:03;6.10;99.90
24772;DHT22;12870;52.274;9.754;2023-01-30T12:30:46;5.90;99.90
24772;DHT22;12870;52.274;9.754;2023-01-30T12:33:14;5.70;99.90
24772;DHT22;12870;52.274;9.754;2023-01-30T12:41:17;5.70;99.90
24772;DHT22;12870;52.274;9.754;2023-01-30T12:47:17;5.80;99.90
24772;DHT22;12870;52.274;9.754;2023-01-30T13:01:26;5.30;99.90
24772;DHT22;12870;52.274;9.754;2023-01-30T13:09:41;5.10;99.90
24772;DHT22;12870;52.274;9.754;2023-01-30T13:17:52;5.90;99.90
24772;DHT22;12870;52.274;9.754;2023-01-30T13:23:19;6.90;99.90
24772;DHT22;12870;52.274;9.754;2023-01-30T13:28:22;7.40;99.90
24772;DHT22;12870;52.274;9.754;2023-01-30T13:30:51;8.00;99.90
24772;DHT22;12870;52.274;9.754;2023-01-30T13:33:34;8.50;99.90
24772;DHT22;12870;52.274;9.754;2023-01-30T13:36:22;9.10;99.90
24772;DHT22;12870;52.274;9.754;2023-01-30T13:41:43;9.20;99.90
24772;DHT22;12870;52.274;9.754;2023-01-30T13:44:22;9.20;99.90
24772;DHT22;12870;52.274;9.754;2023-01-30T13:46:51;8.60;99.90
24772;DHT22;12870;52.274;9.754;2023-01-30T13:49:41;8.60;99.90
24772;DHT22;12870;52.274;9.754;2023-01-30T13:52:33;8.80;99.90
24772;DHT22;12870;52.274;9.754;2023-01-30T13:57:53;9.40;99.90
24772;DHT22;12870;52.274;9.754;2023-01-30T14:00:31;9.50;99.90
24772;DHT22;12870;52.274;9.754;2023-01-30T14:08:24;8.70;99.90
24772;DHT22;12870;52.274;9.754;2023-01-30T14:10:52;8.40;99.90
24772;DHT22;12870;52.274;9.754;2023-01-30T14:13:21;7.90;99.90
24772;DHT22;12870;52.274;9.754;2023-01-30T14:16:01;7.60;99.90
24772;DHT22;12870;52.274;9.754;2023-01-30T14:18:35;7.40;99.90
24772;DHT22;12870;52.274;9.754;2023-01-30T14:21:20;7.20;99.90
24772;DHT22;12870;52.274;9.754;2023-01-30T14:24:00;7.10;99.90
24772;DHT22;12870;52.274;9.754;2023-01-30T14:37:28;6.90;99.90
24772;DHT22;12870;52.274;9.754;2023-01-30T14:39:55;6.90;99.90
24772;DHT22;12870;52.274;9.754;2023-01-30T14:42:26;6.90;99.90
24772;DHT22;12870;52.274;9.754;2023-01-30T14:45:41;6.90;99.90
24772;DHT22;12870;52.274;9.754;2023-01-30T14:50:46;6.90;99.90
24772;DHT22;12870;52.274;9.754;2023-01-30T14:53:12;6.90;99.90
24772;DHT22;12870;52.274;9.754;2023-01-30T14:55:38;6.90;99.90
24772;DHT22;12870;52.274;9.754;2023-01-30T14:58:04;6.80;99.90
24772;DHT22;12870;52.274;9.754;2023-01-30T15:00:38;6.80;99.90
24772;DHT22;12870;52.274;9.754;2023-01-30T15:03:08;6.70;99.90
24772;DHT22;12870;52.274;9.754;2023-01-30T15:05:45;6.70;99.90
24772;DHT22;12870;52.274;9.754;2023-01-30T15:08:19;6.70;99.90
24772;DHT22;12870;52.274;9.754;2023-01-30T15:10:57;6.80;99.90
24772;DHT22;12870;52.274;9.754;2023-01-30T15:22:01;6.70;99.90
24772;DHT22;12870;52.274;9.754;2023-01-30T15:30:15;6.80;99.90
24772;DHT22;12870;52.274;9.754;2023-01-30T15:32:43;6.90;99.90
24772;DHT22;12870;52.274;9.754;2023-01-30T15:35:19;6.90;99.90
24772;DHT22;12870;52.274;9.754;2023-01-30T15:43:17;6.80;99.90
24772;DHT22;12870;52.274;9.754;2023-01-30T15:46:23;6.70;99.90
24772;DHT22;12870;52.274;9.754;2023-01-30T15:49:15;6.60;99.90
24772;DHT22;12870;52.274;9.754;2023-01-30T15:51:43;6.60;99.90
24772;DHT22;12870;52.274;9.754;2023-01-30T15:54:13;6.60;99.90
24772;DHT22;12870;52.274;9.754;2023-01-30T15:56:44;6.60;99.90
24772;DHT22;12870;52.274;9.754;2023-01-30T15:59:30;6.50;99.90
24772;DHT22;12870;52.274;9.754;2023-01-30T16:02:17;6.60;99.90
24772;DHT22;12870;52.274;9.754;2023-01-30T16:04:48;6.50;99.90
24772;DHT22;12870;52.274;9.754;2023-01-30T16:07:23;6.50;99.90
24772;DHT22;12870;52.274;9.754;2023-01-30T16:09:58;6.60;99.90
24772;DHT22;12870;52.274;9.754;2023-01-30T16:12:29;6.60;99.90
24772;DHT22;12870;52.274;9.754;2023-01-30T16:14:55;6.60;99.90
24772;DHT22;12870;52.274;9.754;2023-01-30T16:17:30;6.50;99.90
24772;DHT22;12870;52.274;9.754;2023-01-30T16:19:57;6.60;99.90
24772;DHT22;12870;52.274;9.754;2023-01-30T16:22:28;6.60;99.90
24772;DHT22;12870;52.274;9.754;2023-01-30T16:24:56;6.50;99.90
24772;DHT22;12870;52.274;9.754;2023-01-30T16:27:29;6.50;99.90
24772;DHT22;12870;52.274;9.754;2023-01-30T16:30:01;6.50;99.90
24772;DHT22;12870;52.274;9.754;2023-01-30T16:32:33;6.40;99.90
24772;DHT22;12870;52.274;9.754;2023-01-30T16:37:46;6.40;99.90
24772;DHT22;12870;52.274;9.754;2023-01-30T16:40:15;6.40;99.90
24772;DHT22;12870;52.274;9.754;2023-01-30T16:42:53;6.50;99.90
24772;DHT22;12870;52.274;9.754;2023-01-30T16:50:44;6.50;99.90
24772;DHT22;12870;52.274;9.754;2023-01-30T16:53:16;6.50;99.90
24772;DHT22;12870;52.274;9.754;2023-01-30T16:58:20;6.30;99.90
24772;DHT22;12870;52.274;9.754;2023-01-30T17:00:49;6.30;99.90
24772;DHT22;12870;52.274;9.754;2023-01-30T17:03:48;6.20;99.90
24772;DHT22;12870;52.274;9.754;2023-01-30T17:06:39;6.20;99.90
24772;DHT22;12870;52.274;9.754;2023-01-30T17:11:55;6.20;99.90
24772;DHT22;12870;52.274;9.754;2023-01-30T17:17:01;6.20;99.90
24772;DHT22;12870;52.274;9.754;2023-01-30T17:19:28;6.20;99.90
24772;DHT22;12870;52.274;9.754;2023-01-30T17:21:54;6.00;99.90
24772;DHT22;12870;52.274;9.754;2023-01-30T17:24:22;6.00;99.90
24772;DHT22;12870;52.274;9.754;2023-01-30T17:26:57;6.00;99.90
24772;DHT22;12870;52.274;9.754;2023-01-30T17:29:25;6.00;99.90
24772;DHT22;12870;52.274;9.754;2023-01-30T17:31:51;6.10;99.90
24772;DHT22;12870;52.274;9.754;2023-01-30T17:34:17;6.10;99.90
24772;DHT22;12870;52.274;9.754;2023-01-30T17:36:45;6.20;99.90
24772;DHT22;12870;52.274;9.754;2023-01-30T17:39:14;6.20;99.90
24772;DHT22;12870;52.274;9.754;2023-01-30T17:41:41;6.30;99.90
24772;DHT22;12870;52.274;9.754;2023-01-30T17:44:08;6.30;99.90
24772;DHT22;12870;52.274;9.754;2023-01-30T17:46:42;6.30;99.90
24772;DHT22;12870;52.274;9.754;2023-01-30T17:49:23;6.30;99.90
24772;DHT22;12870;52.274;9.754;2023-01-30T17:51:51;6.30;99.90
24772;DHT22;12870;52.274;9.754;2023-01-30T17:54:17;6.40;99.90
24772;DHT22;12870;52.274;9.754;2023-01-30T17:56:47;6.40;99.90
24772;DHT22;12870;52.274;9.754;2023-01-30T17:59:17;6.40;99.90
24772;DHT22;12870;52.274;9.754;2023-01-30T18:01:46;6.30;99.90
24772;DHT22;12870;52.274;9.754;2023-01-30T18:04:12;6.30;99.90
24772;DHT22;12870;52.274;9.754;2023-01-30T18:06:39;6.30;99.90
24772;DHT22;12870;52.274;9.754;2023-01-30T18:09:06;6.40;99.90
24772;DHT22;12870;52.274;9.754;2023-01-30T18:11:32;6.40;99.90
24772;DHT22;12870;52.274;9.754;2023-01-30T18:13:58;6.40;99.90
24772;DHT22;12870;52.274;9.754;2023-01-30T18:16:28;6.30;99.90
24772;DHT22;12870;52.274;9.754;2023-01-30T18:18:59;6.30;99.90
24772;DHT22;12870;52.274;9.754;2023-01-30T18:21:28;6.30;99.90
24772;DHT22;12870;52.274;9.754;2023-01-30T18:23:54;6.30;99.90
24772;DHT22;12870;52.274;9.754;2023-01-30T18:26:19;6.30;99.90
24772;DHT22;12870;52.274;9.754;2023-01-30T18:28:46;6.30;99.90
24772;DHT22;12870;52.274;9.754;2023-01-30T18:31:12;6.30;99.90
24772;DHT22;12870;52.274;9.754;2023-01-30T18:33:38;6.30;99.90
24772;DHT22;12870;52.274;9.754;2023-01-30T18:36:06;6.30;99.90
24772;DHT22;12870;52.274;9.754;2023-01-30T18:38:33;6.40;99.90
24772;DHT22;12870;52.274;9.754;2023-01-30T18:40:58;6.40;99.90
24772;DHT22;12870;52.274;9.754;2023-01-30T18:43:29;6.40;99.90
24772;DHT22;12870;52.274;9.754;2023-01-30T18:46:06;6.30;99.90
24772;DHT22;12870;52.274;9.754;2023-01-30T18:48:34;6.20;99.90
24772;DHT22;12870;52.274;9.754;2023-01-30T18:51:12;6.20;99.90
24772;DHT22;12870;52.274;9.754;2023-01-30T18:53:39;6.20;99.90